createdAt,value
2019-06-20T00:03:07.263Z,98916.48
2019-06-20T00:08:10.991Z,98912.76
2019-06-20T00:13:14.409Z,98910.14
2019-06-20T00:18:17.711Z,98907.52
2019-06-20T00:23:20.824Z,98914.52
2019-06-20T00:28:24.182Z,98903.75
2019-06-20T00:33:27.230Z,98896.64
2019-06-20T00:38:30.609Z,98896.88
2019-06-20T00:43:33.675Z,98898.28
2019-06-20T00:48:36.764Z,98886.36
2019-06-20T00:53:40.131Z,98883.07
2019-06-20T00:58:43.326Z,98882.88
2019-06-20T01:03:46.494Z,98873.45
2019-06-20T01:08:49.591Z,98873.69
2019-06-20T01:13:53.021Z,98874.25
2019-06-20T01:18:56.487Z,98878.39
2019-06-20T01:23:59.535Z,98884.12
2019-06-20T01:29:02.695Z,98878.14
2019-06-20T01:34:05.939Z,98882.06
2019-06-20T01:39:10.749Z,98871.66
2019-06-20T01:44:13.882Z,98867.27
2019-06-20T01:49:16.890Z,98877.45
2019-06-20T01:54:20.090Z,98880.73
2019-06-20T01:59:23.167Z,98891.14
2019-06-20T02:04:26.289Z,98884.59
2019-06-20T02:09:29.292Z,98890.22
2019-06-20T02:14:32.446Z,98896.19
2019-06-20T02:19:35.515Z,98900.37
2019-06-20T02:24:38.740Z,98901.22
2019-06-20T02:29:41.733Z,98905.97
2019-06-20T02:34:44.897Z,98911.20
2019-06-20T02:39:48.017Z,98918.31
2019-06-20T02:44:52.431Z,98910.59
2019-06-20T02:49:55.461Z,98914.36
2019-06-20T02:54:58.993Z,98918.09
2019-06-20T03:00:02.375Z,98927.42
2019-06-20T03:05:06.076Z,98922.50
2019-06-20T03:10:09.780Z,98930.95
2019-06-20T03:15:13.163Z,98932.35
2019-06-20T03:20:16.698Z,98939.05
2019-06-20T03:25:20.413Z,98936.91
2019-06-20T03:30:23.955Z,98935.14
2019-06-20T03:35:27.363Z,98943.48
2019-06-20T03:40:31.116Z,98943.39
2019-06-20T03:45:35.854Z,98940.20
2019-06-20T03:50:39.091Z,98947.10
2019-06-20T03:55:42.247Z,98940.64
2019-06-20T04:00:45.479Z,98952.77
2019-06-20T04:05:48.718Z,98957.84
2019-06-20T04:10:52.877Z,98955.80
2019-06-20T04:15:55.866Z,98959.08
2019-06-20T04:20:59.378Z,98957.95
2019-06-20T04:26:02.705Z,98948.08
2019-06-20T04:31:05.671Z,98948.48
2019-06-20T04:36:08.710Z,98944.13
2019-06-20T04:41:12.244Z,98950.42
2019-06-20T04:46:27.344Z,98953.42
2019-06-20T04:51:30.418Z,98961.69
2019-06-20T04:56:33.489Z,98963.20
2019-06-20T05:01:36.750Z,98973.28
2019-06-20T05:06:43.643Z,98975.61
2019-06-20T05:11:47.025Z,98979.28
2019-06-20T05:16:50.182Z,98975.44
2019-06-20T05:21:53.509Z,98980.78
2019-06-20T05:26:56.605Z,98978.41
2019-06-20T05:31:59.741Z,98985.55
2019-06-20T05:37:02.916Z,98991.09
2019-06-20T05:42:06.006Z,98994.24
2019-06-20T05:47:13.577Z,98986.80
2019-06-20T05:52:14.171Z,98988.41
2019-06-20T05:57:17.297Z,98997.73
2019-06-20T06:02:20.438Z,98996.10
2019-06-20T06:07:23.503Z,98995.38
2019-06-20T06:12:27.445Z,99001.89
2019-06-20T06:17:30.522Z,99002.30
2019-06-20T06:22:33.522Z,99004.50
2019-06-20T06:27:36.565Z,99003.94
2019-06-20T06:32:40.770Z,99001.06
2019-06-20T06:37:44.100Z,99001.91
2019-06-20T06:42:47.502Z,99004.39
2019-06-20T06:47:50.487Z,98999.36
2019-06-20T06:52:53.747Z,98998.59
2019-06-20T06:57:57.028Z,98999.80
2019-06-20T07:03:00.070Z,98997.68
2019-06-20T07:08:03.621Z,98995.03
2019-06-20T07:13:06.609Z,98993.00
2019-06-20T07:18:09.996Z,99000.11
2019-06-20T07:23:13.560Z,98995.52
2019-06-20T07:28:16.551Z,98988.00
2019-06-20T07:33:19.871Z,98986.52
2019-06-20T07:38:23.930Z,98989.45
2019-06-20T07:43:26.958Z,98996.44
2019-06-20T07:48:30.270Z,98995.37
2019-06-20T07:53:33.494Z,98997.63
2019-06-20T07:58:36.569Z,98998.30
2019-06-20T08:03:39.780Z,99000.28
2019-06-20T08:08:42.861Z,99006.83
2019-06-20T08:13:46.391Z,99004.35
2019-06-20T08:18:49.531Z,99014.11
2019-06-20T08:23:53.187Z,99006.44
2019-06-20T08:29:10.258Z,99011.52
2019-06-20T08:34:02.327Z,99012.88
2019-06-20T08:39:09.115Z,99005.98
2019-06-20T08:44:12.249Z,99008.91
2019-06-20T08:49:15.379Z,99006.96
2019-06-20T08:54:18.786Z,99004.88
2019-06-20T08:59:24.665Z,99003.47
2019-06-20T09:04:27.122Z,98999.59
2019-06-20T09:09:30.231Z,99002.66
2019-06-20T09:14:34.038Z,99006.00
2019-06-20T09:19:37.154Z,99003.37
2019-06-20T09:24:40.859Z,99007.59
2019-06-20T09:29:44.421Z,99008.16
2019-06-20T09:34:48.305Z,99008.48
2019-06-20T09:39:52.097Z,99009.09
2019-06-20T09:44:56.435Z,99003.91
2019-06-20T09:49:59.718Z,98997.17
2019-06-20T09:55:03.295Z,98993.49
2019-06-20T10:00:10.668Z,98997.48
2019-06-20T10:05:15.081Z,98990.08
2019-06-20T10:10:19.108Z,98986.76
2019-06-20T10:15:25.469Z,98994.16
2019-06-20T10:20:29.454Z,98990.23
2019-06-20T10:25:32.841Z,98989.80
2019-06-20T10:30:36.146Z,98985.80
2019-06-20T10:35:39.413Z,98983.77
2019-06-20T10:40:44.695Z,98978.58
2019-06-20T10:45:47.927Z,98978.12
2019-06-20T10:50:52.037Z,98979.13
2019-06-20T10:55:55.168Z,98974.55
2019-06-20T11:00:59.634Z,98980.65
2019-06-20T11:06:02.783Z,98981.21
2019-06-20T11:11:05.906Z,98973.48
2019-06-20T11:16:09.062Z,98979.11
2019-06-20T11:21:12.138Z,98962.20
2019-06-20T11:26:15.264Z,98962.98
2019-06-20T11:31:18.431Z,98949.00
2019-06-20T11:36:21.541Z,98955.32
2019-06-20T11:41:24.929Z,98950.00
2019-06-20T11:46:28.062Z,98937.36
2019-06-20T11:51:31.239Z,98931.12
2019-06-20T11:56:34.378Z,98925.89
2019-06-20T12:01:38.394Z,98913.09
2019-06-20T12:06:43.024Z,98910.45
2019-06-20T12:11:46.784Z,98903.62
2019-06-20T12:16:49.952Z,98894.39
2019-06-20T12:21:53.453Z,98901.70
2019-06-20T12:27:00.770Z,98903.08
2019-06-20T12:32:03.771Z,98889.75
2019-06-20T12:37:07.273Z,98892.25
2019-06-20T12:42:10.729Z,98892.94
2019-06-20T12:47:15.721Z,98884.88
2019-06-20T12:52:19.286Z,98877.09
2019-06-20T12:57:22.561Z,98866.64
2019-06-20T13:02:26.558Z,98860.40
2019-06-20T13:07:30.008Z,98855.40
2019-06-20T13:12:33.277Z,98857.94
2019-06-20T13:17:39.296Z,98838.44
2019-06-20T13:22:42.916Z,98843.02
2019-06-20T13:27:47.643Z,98846.27
2019-06-20T13:32:51.015Z,98844.84
2019-06-20T13:37:54.439Z,98845.75
2019-06-20T13:42:57.668Z,98839.32
2019-06-20T13:48:00.761Z,98825.91
2019-06-20T13:53:03.860Z,98824.84
2019-06-20T13:58:07.409Z,98818.69
2019-06-20T14:03:10.718Z,98808.81
2019-06-20T14:08:13.976Z,98804.55
2019-06-20T14:13:19.503Z,98806.04
2019-06-20T14:18:22.256Z,98810.64
2019-06-20T14:23:26.351Z,98806.97
2019-06-20T14:28:29.457Z,98816.56
2019-06-20T14:33:32.880Z,98841.91
2019-06-20T14:38:36.260Z,98891.36
2019-06-20T14:43:39.341Z,98875.75
2019-06-20T14:48:43.561Z,98880.10
2019-06-20T14:53:49.441Z,98882.77
2019-06-20T14:58:53.828Z,98880.13
2019-06-20T15:03:57.427Z,98873.91
2019-06-20T15:09:05.797Z,98858.13
2019-06-20T15:14:06.357Z,98847.05
2019-06-20T15:19:09.489Z,98846.79
2019-06-20T15:24:12.567Z,98849.86
2019-06-20T15:29:15.741Z,98852.92
2019-06-20T15:34:19.167Z,98854.34
2019-06-20T15:39:22.315Z,98852.52
2019-06-20T15:44:25.586Z,98849.25
2019-06-20T15:49:29.036Z,98833.11
2019-06-20T15:54:32.037Z,98838.73
2019-06-20T15:59:35.311Z,98830.88
2019-06-20T16:04:38.508Z,98833.27
2019-06-20T16:09:41.737Z,98840.59
2019-06-20T16:14:45.189Z,98830.27
2019-06-20T16:19:48.192Z,98835.53
2019-06-20T16:24:51.424Z,98840.36
2019-06-20T16:29:54.520Z,98838.39
2019-06-20T16:34:57.889Z,98856.77
2019-06-20T16:40:01.586Z,98857.62
2019-06-20T16:45:05.300Z,98865.09
2019-06-20T16:50:10.125Z,98868.13
2019-06-20T16:55:14.254Z,98881.08
2019-06-20T17:00:17.810Z,98887.28
2019-06-20T17:05:21.267Z,98893.22
2019-06-20T17:10:24.286Z,98906.03
2019-06-20T17:15:27.472Z,98903.83
2019-06-20T17:20:30.421Z,98915.35
2019-06-20T17:25:33.634Z,98921.66
2019-06-20T17:30:36.898Z,98924.70
2019-06-20T17:35:39.990Z,98919.50
2019-06-20T17:40:43.100Z,98925.71
2019-06-20T17:45:46.162Z,98926.42
2019-06-20T17:50:49.294Z,98922.73
2019-06-20T17:55:52.320Z,98932.68
2019-06-20T18:00:55.922Z,98929.94
2019-06-20T18:05:59.164Z,98923.07
2019-06-20T18:11:02.174Z,98924.59
2019-06-20T18:16:05.419Z,98929.11
2019-06-20T18:21:08.790Z,98940.63
2019-06-20T18:26:12.664Z,98930.88
2019-06-20T18:31:15.836Z,98935.33
2019-06-20T18:36:18.842Z,98937.61
2019-06-20T18:41:21.900Z,98935.85
2019-06-20T18:46:25.038Z,98945.78
2019-06-20T18:51:28.133Z,98953.11
2019-06-20T18:56:31.182Z,98957.49
2019-06-20T19:01:34.347Z,98967.38
2019-06-20T19:06:37.456Z,98989.53
2019-06-20T19:11:41.053Z,99003.48
2019-06-20T19:16:44.149Z,99007.49
2019-06-20T19:21:47.333Z,99020.34
2019-06-20T19:26:50.484Z,99028.31
2019-06-20T19:31:53.960Z,99037.05
2019-06-20T19:36:57.231Z,99035.36
2019-06-20T19:42:00.377Z,99039.84
2019-06-20T19:47:03.492Z,99043.31
2019-06-20T19:52:07.362Z,99046.44
2019-06-20T19:57:10.611Z,99046.69
2019-06-20T20:02:14.089Z,99038.47
2019-06-20T20:07:17.201Z,99028.39
2019-06-20T20:12:20.312Z,99022.14
2019-06-20T20:17:23.406Z,99026.08
2019-06-20T20:22:26.594Z,99019.13
2019-06-20T20:27:29.907Z,99009.15
2019-06-20T20:32:33.138Z,99007.88
2019-06-20T20:37:36.274Z,98993.61
2019-06-20T20:42:39.794Z,98999.33
2019-06-20T20:47:42.895Z,99003.86
2019-06-20T20:52:46.016Z,98995.20
2019-06-20T20:57:49.154Z,98986.87
2019-06-20T21:02:52.745Z,98999.11
2019-06-20T21:07:55.952Z,98997.16
2019-06-20T21:12:59.150Z,98991.39
2019-06-20T21:18:02.197Z,98994.46
2019-06-20T21:23:05.474Z,99003.55
2019-06-20T21:28:08.513Z,98997.22
2019-06-20T21:33:12.389Z,98987.23
2019-06-20T21:38:15.943Z,98993.88
2019-06-20T21:43:19.055Z,99005.30
2019-06-20T21:48:22.142Z,99004.56
2019-06-20T21:53:26.053Z,99022.52
2019-06-20T21:58:29.979Z,99026.03
2019-06-20T22:03:33.317Z,99040.80
2019-06-20T22:08:36.403Z,99043.69
2019-06-20T22:13:43.134Z,99042.70
2019-06-20T22:18:46.407Z,99040.83
2019-06-20T22:23:49.652Z,99053.09
2019-06-20T22:28:52.634Z,99057.33
2019-06-20T22:33:55.869Z,99059.10
2019-06-20T22:38:58.929Z,99065.53
2019-06-20T22:44:02.292Z,99052.88
2019-06-20T22:49:05.313Z,99049.45
2019-06-20T22:54:08.529Z,99032.91
2019-06-20T22:59:11.807Z,99035.92
2019-06-20T23:04:14.888Z,99026.45
2019-06-20T23:09:17.905Z,99022.23
2019-06-20T23:14:20.997Z,99028.28
2019-06-20T23:19:24.249Z,99024.34
2019-06-20T23:24:27.437Z,99022.56
2019-06-20T23:29:30.506Z,99027.02
2019-06-20T23:34:33.479Z,99024.69
2019-06-20T23:39:37.016Z,99032.10
2019-06-20T23:44:40.256Z,99023.20
2019-06-20T23:49:43.416Z,99024.69
2019-06-20T23:54:46.980Z,99031.48
2019-06-20T23:59:50.237Z,99022.84
